sensor_id;sensor_type;location;lat;lon;timestamp;temperature;humidity
9768;DHT22;4923;52.520;13.494;2023-03-23T00:02:39;11.50;99.90
9768;DHT22;4923;52.520;13.494;2023-03-23T00:05:26;11.50;99.90
9768;DHT22;4923;52.520;13.494;2023-03-23T00:08:14;11.40;99.90
9768;DHT22;4923;52.520;13.494;2023-03-23T00:11:01;11.40;99.90
9768;DHT22;4923;52.520;13.494;2023-03-23T00:13:50;11.30;99.90
9768;DHT22;4923;52.520;13.494;2023-03-23T00:16:39;11.30;99.90
9768;DHT22;4923;52.520;13.494;2023-03-23T00:19:28;11.20;99.90
9768;DHT22;4923;52.520;13.494;2023-03-23T00:22:16;11.10;99.90
9768;DHT22;4923;52.520;13.494;2023-03-23T00:25:05;11.10;99.90
9768;DHT22;4923;52.520;13.494;2023-03-23T00:27:53;11.00;99.90
9768;DHT22;4923;52.520;13.494;2023-03-23T00:30:40;11.00;99.90
9768;DHT22;4923;52.520;13.494;2023-03-23T00:33:33;10.90;99.90
9768;DHT22;4923;52.520;13.494;2023-03-23T00:36:23;10.90;99.90
9768;DHT22;4923;52.520;13.494;2023-03-23T00:39:12;10.90;99.90
9768;DHT22;4923;52.520;13.494;2023-03-23T00:42:01;10.80;99.90
9768;DHT22;4923;52.520;13.494;2023-03-23T00:44:48;10.80;99.90
9768;DHT22;4923;52.520;13.494;2023-03-23T00:47:35;10.70;1.00
9768;DHT22;4923;52.520;13.494;2023-03-23T00:50:23;10.70;1.00
9768;DHT22;4923;52.520;13.494;2023-03-23T00:53:10;10.70;1.00
9768;DHT22;4923;52.520;13.494;2023-03-23T00:55:57;10.60;1.00
9768;DHT22;4923;52.520;13.494;2023-03-23T00:58:44;10.60;1.00
9768;DHT22;4923;52.520;13.494;2023-03-23T01:01:31;10.60;1.00
9768;DHT22;4923;52.520;13.494;2023-03-23T01:04:18;10.60;1.00
9768;DHT22;4923;52.520;13.494;2023-03-23T01:07:06;10.50;1.00
9768;DHT22;4923;52.520;13.494;2023-03-23T01:09:58;10.50;1.00
9768;DHT22;4923;52.520;13.494;2023-03-23T01:12:46;10.40;1.00
9768;DHT22;4923;52.520;13.494;2023-03-23T01:15:33;10.40;1.00
9768;DHT22;4923;52.520;13.494;2023-03-23T01:18:21;10.40;1.00
9768;DHT22;4923;52.520;13.494;2023-03-23T01:21:11;10.40;1.00
9768;DHT22;4923;52.520;13.494;2023-03-23T01:23:59;10.40;1.00
9768;DHT22;4923;52.520;13.494;2023-03-23T01:26:46;10.30;1.00
9768;DHT22;4923;52.520;13.494;2023-03-23T01:29:33;10.20;1.00
9768;DHT22;4923;52.520;13.494;2023-03-23T01:32:20;10.20;1.00
9768;DHT22;4923;52.520;13.494;2023-03-23T01:35:08;10.20;1.00
9768;DHT22;4923;52.520;13.494;2023-03-23T01:37:55;10.20;1.00
9768;DHT22;4923;52.520;13.494;2023-03-23T01:40:44;10.10;1.00
9768;DHT22;4923;52.520;13.494;2023-03-23T01:43:31;10.20;1.00
9768;DHT22;4923;52.520;13.494;2023-03-23T01:46:18;10.20;1.00
9768;DHT22;4923;52.520;13.494;2023-03-23T01:49:10;10.20;1.00
9768;DHT22;4923;52.520;13.494;2023-03-23T01:52:00;10.10;1.00
9768;DHT22;4923;52.520;13.494;2023-03-23T01:54:49;10.20;1.00
9768;DHT22;4923;52.520;13.494;2023-03-23T01:57:39;10.20;1.00
9768;DHT22;4923;52.520;13.494;2023-03-23T02:00:26;10.30;1.00
9768;DHT22;4923;52.520;13.494;2023-03-23T02:03:13;10.30;1.00
9768;DHT22;4923;52.520;13.494;2023-03-23T02:06:02;10.30;1.00
9768;DHT22;4923;52.520;13.494;2023-03-23T02:08:51;10.30;1.00
9768;DHT22;4923;52.520;13.494;2023-03-23T02:11:38;10.40;1.00
9768;DHT22;4923;52.520;13.494;2023-03-23T02:14:28;10.40;1.00
9768;DHT22;4923;52.520;13.494;2023-03-23T02:17:20;10.50;1.00
9768;DHT22;4923;52.520;13.494;2023-03-23T02:20:18;10.50;1.00
9768;DHT22;4923;52.520;13.494;2023-03-23T02:23:38;10.50;1.00
9768;DHT22;4923;52.520;13.494;2023-03-23T02:26:41;10.50;1.00
9768;DHT22;4923;52.520;13.494;2023-03-23T02:30:11;10.60;1.00
9768;DHT22;4923;52.520;13.494;2023-03-23T02:33:28;10.70;1.00
9768;DHT22;4923;52.520;13.494;2023-03-23T02:36:21;10.70;1.00
9768;DHT22;4923;52.520;13.494;2023-03-23T02:39:12;10.80;1.00
9768;DHT22;4923;52.520;13.494;2023-03-23T02:42:04;10.90;1.00
9768;DHT22;4923;52.520;13.494;2023-03-23T02:44:52;10.90;1.00
9768;DHT22;4923;52.520;13.494;2023-03-23T02:47:41;11.00;1.00
9768;DHT22;4923;52.520;13.494;2023-03-23T02:50:31;11.10;1.00
9768;DHT22;4923;52.520;13.494;2023-03-23T02:53:22;11.20;1.00
9768;DHT22;4923;52.520;13.494;2023-03-23T02:56:10;11.30;1.00
9768;DHT22;4923;52.520;13.494;2023-03-23T02:58:59;11.30;99.90
9768;DHT22;4923;52.520;13.494;2023-03-23T03:01:51;11.30;99.90
9768;DHT22;4923;52.520;13.494;2023-03-23T03:04:41;11.40;99.90
9768;DHT22;4923;52.520;13.494;2023-03-23T03:07:45;11.50;99.90
9768;DHT22;4923;52.520;13.494;2023-03-23T03:10:42;11.50;99.90
9768;DHT22;4923;52.520;13.494;2023-03-23T03:13:36;11.50;99.90
9768;DHT22;4923;52.520;13.494;2023-03-23T03:16:29;11.60;99.90
9768;DHT22;4923;52.520;13.494;2023-03-23T03:19:20;11.60;99.90
9768;DHT22;4923;52.520;13.494;2023-03-23T03:22:11;11.60;99.90
9768;DHT22;4923;52.520;13.494;2023-03-23T03:25:00;11.60;99.90
9768;DHT22;4923;52.520;13.494;2023-03-23T03:27:48;11.70;99.90
9768;DHT22;4923;52.520;13.494;2023-03-23T03:30:38;11.70;99.90
9768;DHT22;4923;52.520;13.494;2023-03-23T03:33:26;11.70;99.90
9768;DHT22;4923;52.520;13.494;2023-03-23T03:36:18;11.70;99.90
9768;DHT22;4923;52.520;13.494;2023-03-23T03:39:09;11.60;99.90
9768;DHT22;4923;52.520;13.494;2023-03-23T03:41:57;11.60;99.90
9768;DHT22;4923;52.520;13.494;2023-03-23T03:44:44;11.70;99.90
9768;DHT22;4923;52.520;13.494;2023-03-23T03:47:31;11.70;99.90
9768;DHT22;4923;52.520;13.494;2023-03-23T03:50:18;11.60;99.90
9768;DHT22;4923;52.520;13.494;2023-03-23T03:53:05;11.70;99.90
9768;DHT22;4923;52.520;13.494;2023-03-23T03:55:52;11.70;99.90
9768;DHT22;4923;52.520;13.494;2023-03-23T03:58:42;11.70;99.90
9768;DHT22;4923;52.520;13.494;2023-03-23T04:01:29;11.70;1.00
9768;DHT22;4923;52.520;13.494;2023-03-23T04:04:16;11.70;1.00
9768;DHT22;4923;52.520;13.494;2023-03-23T04:07:03;11.60;1.00
9768;DHT22;4923;52.520;13.494;2023-03-23T04:09:50;11.60;1.00
9768;DHT22;4923;52.520;13.494;2023-03-23T04:12:37;11.60;1.00
9768;DHT22;4923;52.520;13.494;2023-03-23T04:15:26;11.60;1.00
9768;DHT22;4923;52.520;13.494;2023-03-23T04:18:13;11.60;99.90
9768;DHT22;4923;52.520;13.494;2023-03-23T04:21:03;11.60;99.90
9768;DHT22;4923;52.520;13.494;2023-03-23T04:23:52;11.60;99.90
9768;DHT22;4923;52.520;13.494;2023-03-23T04:26:39;11.50;1.00
9768;DHT22;4923;52.520;13.494;2023-03-23T04:29:27;11.60;1.00
9768;DHT22;4923;52.520;13.494;2023-03-23T04:32:15;11.50;1.00
9768;DHT22;4923;52.520;13.494;2023-03-23T04:35:04;11.50;1.00
9768;DHT22;4923;52.520;13.494;2023-03-23T04:37:53;11.50;1.00
9768;DHT22;4923;52.520;13.494;2023-03-23T04:40:41;11.60;1.00
9768;DHT22;4923;52.520;13.494;2023-03-23T04:43:28;11.50;1.00
9768;DHT22;4923;52.520;13.494;2023-03-23T04:46:15;11.50;1.00
9768;DHT22;4923;52.520;13.494;2023-03-23T04:49:05;11.50;1.00
9768;DHT22;4923;52.520;13.494;2023-03-23T04:51:51;11.50;1.00
9768;DHT22;4923;52.520;13.494;2023-03-23T04:54:38;11.50;1.00
9768;DHT22;4923;52.520;13.494;2023-03-23T04:57:25;11.50;1.00
9768;DHT22;4923;52.520;13.494;2023-03-23T05:00:15;11.40;1.00
9768;DHT22;4923;52.520;13.494;2023-03-23T05:03:04;11.40;1.00
9768;DHT22;4923;52.520;13.494;2023-03-23T05:05:54;11.50;1.00
9768;DHT22;4923;52.520;13.494;2023-03-23T05:08:41;11.40;1.00
9768;DHT22;4923;52.520;13.494;2023-03-23T05:11:27;11.50;1.00
9768;DHT22;4923;52.520;13.494;2023-03-23T05:14:14;11.50;1.00
9768;DHT22;4923;52.520;13.494;2023-03-23T05:17:02;11.50;1.00
9768;DHT22;4923;52.520;13.494;2023-03-23T05:19:49;11.50;1.00
9768;DHT22;4923;52.520;13.494;2023-03-23T05:22:38;11.50;1.00
9768;DHT22;4923;52.520;13.494;2023-03-23T05:25:24;11.50;1.00
9768;DHT22;4923;52.520;13.494;2023-03-23T05:28:11;11.40;1.00
9768;DHT22;4923;52.520;13.494;2023-03-23T05:30:58;11.50;1.00
9768;DHT22;4923;52.520;13.494;2023-03-23T05:33:45;11.50;1.00
9768;DHT22;4923;52.520;13.494;2023-03-23T05:36:32;11.40;1.00
9768;DHT22;4923;52.520;13.494;2023-03-23T05:39:21;11.40;1.00
9768;DHT22;4923;52.520;13.494;2023-03-23T05:42:08;11.40;1.00
9768;DHT22;4923;52.520;13.494;2023-03-23T05:44:55;11.40;1.00
9768;DHT22;4923;52.520;13.494;2023-03-23T05:47:42;11.40;1.00
9768;DHT22;4923;52.520;13.494;2023-03-23T05:50:28;11.40;1.00
9768;DHT22;4923;52.520;13.494;2023-03-23T05:53:15;11.40;1.00
9768;DHT22;4923;52.520;13.494;2023-03-23T05:56:05;11.40;1.00
9768;DHT22;4923;52.520;13.494;2023-03-23T05:58:54;11.40;1.00
9768;DHT22;4923;52.520;13.494;2023-03-23T06:01:40;11.30;1.00
9768;DHT22;4923;52.520;13.494;2023-03-23T06:04:27;11.50;1.00
9768;DHT22;4923;52.520;13.494;2023-03-23T06:07:14;11.50;1.00
9768;DHT22;4923;52.520;13.494;2023-03-23T06:10:01;11.40;1.00
9768;DHT22;4923;52.520;13.494;2023-03-23T06:12:50;11.30;24.60
9768;DHT22;4923;52.520;13.494;2023-03-23T06:15:37;11.30;78.20
9768;DHT22;4923;52.520;13.494;2023-03-23T06:18:24;11.30;99.90
9768;DHT22;4923;52.520;13.494;2023-03-23T06:21:12;11.30;99.90
9768;DHT22;4923;52.520;13.494;2023-03-23T06:23:59;11.30;99.90
9768;DHT22;4923;52.520;13.494;2023-03-23T06:26:46;11.30;99.90
9768;DHT22;4923;52.520;13.494;2023-03-23T06:29:35;11.20;99.90
9768;DHT22;4923;52.520;13.494;2023-03-23T06:32:22;11.20;99.90
9768;DHT22;4923;52.520;13.494;2023-03-23T06:35:10;11.20;99.90
9768;DHT22;4923;52.520;13.494;2023-03-23T06:37:57;11.20;99.90
9768;DHT22;4923;52.520;13.494;2023-03-23T06:40:46;11.30;99.90
9768;DHT22;4923;52.520;13.494;2023-03-23T06:43:34;12.90;1.00
9768;DHT22;4923;52.520;13.494;2023-03-23T06:46:25;12.50;1.00
9768;DHT22;4923;52.520;13.494;2023-03-23T06:49:11;12.40;1.00
9768;DHT22;4923;52.520;13.494;2023-03-23T06:51:58;12.40;99.90
9768;DHT22;4923;52.520;13.494;2023-03-23T06:54:47;12.10;99.90
9768;DHT22;4923;52.520;13.494;2023-03-23T06:57:34;11.90;99.90
9768;DHT22;4923;52.520;13.494;2023-03-23T07:00:21;11.90;99.90
9768;DHT22;4923;52.520;13.494;2023-03-23T07:03:09;11.80;99.90
9768;DHT22;4923;52.520;13.494;2023-03-23T07:05:57;11.90;99.90
9768;DHT22;4923;52.520;13.494;2023-03-23T07:08:44;11.90;99.90
9768;DHT22;4923;52.520;13.494;2023-03-23T07:11:31;11.90;99.90
9768;DHT22;4923;52.520;13.494;2023-03-23T07:14:18;11.90;1.00
9768;DHT22;4923;52.520;13.494;2023-03-23T07:17:07;11.90;1.00
9768;DHT22;4923;52.520;13.494;2023-03-23T07:19:55;11.90;1.00
9768;DHT22;4923;52.520;13.494;2023-03-23T07:22:42;12.00;1.00
9768;DHT22;4923;52.520;13.494;2023-03-23T07:25:29;12.00;1.00
9768;DHT22;4923;52.520;13.494;2023-03-23T07:28:16;12.10;1.00
9768;DHT22;4923;52.520;13.494;2023-03-23T07:31:04;12.10;1.00
9768;DHT22;4923;52.520;13.494;2023-03-23T07:33:51;12.10;1.00
9768;DHT22;4923;52.520;13.494;2023-03-23T07:36:39;12.10;1.00
9768;DHT22;4923;52.520;13.494;2023-03-23T07:39:26;12.10;1.00
9768;DHT22;4923;52.520;13.494;2023-03-23T07:42:13;12.20;1.00
9768;DHT22;4923;52.520;13.494;2023-03-23T07:45:00;12.20;1.00
9768;DHT22;4923;52.520;13.494;2023-03-23T07:47:47;12.30;1.00
9768;DHT22;4923;52.520;13.494;2023-03-23T07:50:34;12.30;1.00
9768;DHT22;4923;52.520;13.494;2023-03-23T07:53:24;12.30;1.00
9768;DHT22;4923;52.520;13.494;2023-03-23T07:56:11;12.40;1.00
9768;DHT22;4923;52.520;13.494;2023-03-23T07:58:58;12.50;1.00
9768;DHT22;4923;52.520;13.494;2023-03-23T08:01:44;12.60;1.00
9768;DHT22;4923;52.520;13.494;2023-03-23T08:04:31;12.50;1.00
9768;DHT22;4923;52.520;13.494;2023-03-23T08:07:22;12.60;1.00
9768;DHT22;4923;52.520;13.494;2023-03-23T08:10:12;12.40;1.00
9768;DHT22;4923;52.520;13.494;2023-03-23T08:12:59;12.50;99.90
9768;DHT22;4923;52.520;13.494;2023-03-23T08:15:46;12.50;99.90
9768;DHT22;4923;52.520;13.494;2023-03-23T08:18:33;12.50;99.90
9768;DHT22;4923;52.520;13.494;2023-03-23T08:21:20;12.50;99.90
9768;DHT22;4923;52.520;13.494;2023-03-23T08:24:07;12.60;99.90
9768;DHT22;4923;52.520;13.494;2023-03-23T08:26:56;12.60;99.90
9768;DHT22;4923;52.520;13.494;2023-03-23T08:29:44;12.70;99.90
9768;DHT22;4923;52.520;13.494;2023-03-23T08:32:31;12.70;99.90
9768;DHT22;4923;52.520;13.494;2023-03-23T08:35:19;12.60;99.90
9768;DHT22;4923;52.520;13.494;2023-03-23T08:38:05;12.70;99.90
9768;DHT22;4923;52.520;13.494;2023-03-23T08:40:57;12.70;99.90
9768;DHT22;4923;52.520;13.494;2023-03-23T08:43:45;12.70;99.90
9768;DHT22;4923;52.520;13.494;2023-03-23T08:46:32;12.70;99.90
9768;DHT22;4923;52.520;13.494;2023-03-23T08:49:19;12.80;99.90
9768;DHT22;4923;52.520;13.494;2023-03-23T08:52:06;12.80;99.90
9768;DHT22;4923;52.520;13.494;2023-03-23T08:54:53;13.00;99.90
9768;DHT22;4923;52.520;13.494;2023-03-23T08:57:40;13.10;99.90
9768;DHT22;4923;52.520;13.494;2023-03-23T09:00:31;13.20;99.90
9768;DHT22;4923;52.520;13.494;2023-03-23T09:03:18;13.30;99.90
9768;DHT22;4923;52.520;13.494;2023-03-23T09:06:07;13.40;99.90
9768;DHT22;4923;52.520;13.494;2023-03-23T09:08:54;13.50;63.70
9768;DHT22;4923;52.520;13.494;2023-03-23T09:11:41;13.70;4.80
9768;DHT22;4923;52.520;13.494;2023-03-23T09:14:28;13.80;1.00
9768;DHT22;4923;52.520;13.494;2023-03-23T09:17:17;13.90;1.00
9768;DHT22;4923;52.520;13.494;2023-03-23T09:20:05;13.90;1.00
9768;DHT22;4923;52.520;13.494;2023-03-23T09:22:57;13.90;1.00
9768;DHT22;4923;52.520;13.494;2023-03-23T09:25:44;13.90;1.00
9768;DHT22;4923;52.520;13.494;2023-03-23T09:28:32;13.80;1.00
9768;DHT22;4923;52.520;13.494;2023-03-23T09:31:19;14.00;1.00
9768;DHT22;4923;52.520;13.494;2023-03-23T09:34:09;14.10;1.00
9768;DHT22;4923;52.520;13.494;2023-03-23T09:36:56;14.30;1.00
9768;DHT22;4923;52.520;13.494;2023-03-23T09:39:43;14.50;1.00
9768;DHT22;4923;52.520;13.494;2023-03-23T09:42:39;14.60;1.00
9768;DHT22;4923;52.520;13.494;2023-03-23T09:45:36;14.70;1.00
9768;DHT22;4923;52.520;13.494;2023-03-23T09:48:38;14.70;1.00
9768;DHT22;4923;52.520;13.494;2023-03-23T09:51:34;14.80;1.00
9768;DHT22;4923;52.520;13.494;2023-03-23T09:54:28;14.80;1.00
9768;DHT22;4923;52.520;13.494;2023-03-23T09:57:22;14.90;1.00
9768;DHT22;4923;52.520;13.494;2023-03-23T10:00:14;15.00;1.00
9768;DHT22;4923;52.520;13.494;2023-03-23T10:03:06;15.20;1.00
9768;DHT22;4923;52.520;13.494;2023-03-23T10:05:55;15.30;1.00
9768;DHT22;4923;52.520;13.494;2023-03-23T10:08:45;15.50;99.90
9768;DHT22;4923;52.520;13.494;2023-03-23T10:11:41;15.50;99.90
9768;DHT22;4923;52.520;13.494;2023-03-23T10:14:37;15.30;99.90
9768;DHT22;4923;52.520;13.494;2023-03-23T10:17:29;15.40;99.90
9768;DHT22;4923;52.520;13.494;2023-03-23T10:20:32;15.50;99.90
9768;DHT22;4923;52.520;13.494;2023-03-23T10:23:41;15.60;99.90
9768;DHT22;4923;52.520;13.494;2023-03-23T10:26:40;15.90;99.90
9768;DHT22;4923;52.520;13.494;2023-03-23T10:29:31;16.10;99.90
9768;DHT22;4923;52.520;13.494;2023-03-23T10:32:35;16.30;99.90
9768;DHT22;4923;52.520;13.494;2023-03-23T10:35:26;15.90;99.90
9768;DHT22;4923;52.520;13.494;2023-03-23T10:38:20;16.20;99.90
9768;DHT22;4923;52.520;13.494;2023-03-23T10:41:11;16.40;99.90
9768;DHT22;4923;52.520;13.494;2023-03-23T10:44:00;16.70;99.90
9768;DHT22;4923;52.520;13.494;2023-03-23T10:46:51;16.60;99.90
9768;DHT22;4923;52.520;13.494;2023-03-23T10:49:43;16.50;75.20
9768;DHT22;4923;52.520;13.494;2023-03-23T10:52:33;16.70;71.60
9768;DHT22;4923;52.520;13.494;2023-03-23T10:55:23;16.60;35.50
9768;DHT22;4923;52.520;13.494;2023-03-23T10:58:23;16.60;26.70
9768;DHT22;4923;52.520;13.494;2023-03-23T11:01:12;16.60;11.20
9768;DHT22;4923;52.520;13.494;2023-03-23T11:04:00;16.40;1.00
9768;DHT22;4923;52.520;13.494;2023-03-23T11:06:49;16.50;1.00
9768;DHT22;4923;52.520;13.494;2023-03-23T11:09:50;16.40;1.00
9768;DHT22;4923;52.520;13.494;2023-03-23T11:12:37;16.40;1.00
9768;DHT22;4923;52.520;13.494;2023-03-23T11:15:30;16.50;1.00
9768;DHT22;4923;52.520;13.494;2023-03-23T11:18:22;16.60;1.00
9768;DHT22;4923;52.520;13.494;2023-03-23T11:21:12;16.70;1.00
9768;DHT22;4923;52.520;13.494;2023-03-23T11:24:00;16.50;1.00
9768;DHT22;4923;52.520;13.494;2023-03-23T11:26:49;16.50;1.00
9768;DHT22;4923;52.520;13.494;2023-03-23T11:29:48;16.40;1.00
9768;DHT22;4923;52.520;13.494;2023-03-23T11:32:38;16.60;1.00
9768;DHT22;4923;52.520;13.494;2023-03-23T11:35:30;16.60;1.00
9768;DHT22;4923;52.520;13.494;2023-03-23T11:38:19;16.90;1.00
9768;DHT22;4923;52.520;13.494;2023-03-23T11:41:10;17.00;1.00
9768;DHT22;4923;52.520;13.494;2023-03-23T11:44:03;17.10;1.00
9768;DHT22;4923;52.520;13.494;2023-03-23T11:47:00;17.10;1.00
9768;DHT22;4923;52.520;13.494;2023-03-23T11:49:55;17.20;1.00
9768;DHT22;4923;52.520;13.494;2023-03-23T11:52:52;17.40;1.00
9768;DHT22;4923;52.520;13.494;2023-03-23T11:55:53;17.40;1.00
9768;DHT22;4923;52.520;13.494;2023-03-23T11:58:42;17.40;1.00
9768;DHT22;4923;52.520;13.494;2023-03-23T12:01:43;17.40;1.00
9768;DHT22;4923;52.520;13.494;2023-03-23T12:04:40;17.40;1.00
9768;DHT22;4923;52.520;13.494;2023-03-23T12:07:44;17.40;1.00
9768;DHT22;4923;52.520;13.494;2023-03-23T12:10:40;17.30;1.00
9768;DHT22;4923;52.520;13.494;2023-03-23T12:13:51;17.30;1.00
9768;DHT22;4923;52.520;13.494;2023-03-23T12:16:53;17.20;1.00
9768;DHT22;4923;52.520;13.494;2023-03-23T12:19:49;17.40;1.00
9768;DHT22;4923;52.520;13.494;2023-03-23T12:22:46;17.40;1.00
9768;DHT22;4923;52.520;13.494;2023-03-23T12:26:03;17.50;1.00
9768;DHT22;4923;52.520;13.494;2023-03-23T12:29:05;17.50;1.00
9768;DHT22;4923;52.520;13.494;2023-03-23T12:35:40;17.10;1.00
9768;DHT22;4923;52.520;13.494;2023-03-23T12:38:48;17.20;1.00
9768;DHT22;4923;52.520;13.494;2023-03-23T12:41:45;17.30;1.00
9768;DHT22;4923;52.520;13.494;2023-03-23T12:44:38;17.30;1.00
9768;DHT22;4923;52.520;13.494;2023-03-23T12:47:34;17.20;1.00
9768;DHT22;4923;52.520;13.494;2023-03-23T12:50:27;17.10;1.00
9768;DHT22;4923;52.520;13.494;2023-03-23T12:53:19;17.10;1.00
9768;DHT22;4923;52.520;13.494;2023-03-23T12:56:14;17.10;1.00
9768;DHT22;4923;52.520;13.494;2023-03-23T12:59:09;17.20;1.00
9768;DHT22;4923;52.520;13.494;2023-03-23T13:02:02;17.30;1.00
9768;DHT22;4923;52.520;13.494;2023-03-23T13:04:58;17.60;1.00
9768;DHT22;4923;52.520;13.494;2023-03-23T13:07:49;17.60;1.00
9768;DHT22;4923;52.520;13.494;2023-03-23T13:10:42;17.70;1.00
9768;DHT22;4923;52.520;13.494;2023-03-23T13:13:44;17.80;1.00
9768;DHT22;4923;52.520;13.494;2023-03-23T13:16:37;18.00;1.00
9768;DHT22;4923;52.520;13.494;2023-03-23T13:22:39;17.60;1.00
9768;DHT22;4923;52.520;13.494;2023-03-23T13:25:39;17.40;1.00
9768;DHT22;4923;52.520;13.494;2023-03-23T13:28:31;17.40;1.00
9768;DHT22;4923;52.520;13.494;2023-03-23T13:31:22;17.40;1.00
9768;DHT22;4923;52.520;13.494;2023-03-23T13:34:19;17.50;1.00
9768;DHT22;4923;52.520;13.494;2023-03-23T13:37:10;17.40;1.00
9768;DHT22;4923;52.520;13.494;2023-03-23T13:40:19;17.60;1.00
9768;DHT22;4923;52.520;13.494;2023-03-23T13:43:08;17.80;1.00
9768;DHT22;4923;52.520;13.494;2023-03-23T13:46:07;17.70;1.00
9768;DHT22;4923;52.520;13.494;2023-03-23T13:49:18;17.70;1.00
9768;DHT22;4923;52.520;13.494;2023-03-23T13:52:21;17.70;1.00
9768;DHT22;4923;52.520;13.494;2023-03-23T13:55:30;17.60;1.00
9768;DHT22;4923;52.520;13.494;2023-03-23T13:58:25;17.40;1.00
9768;DHT22;4923;52.520;13.494;2023-03-23T14:01:16;17.50;1.00
9768;DHT22;4923;52.520;13.494;2023-03-23T14:04:05;17.60;1.00
9768;DHT22;4923;52.520;13.494;2023-03-23T14:06:54;17.50;1.00
9768;DHT22;4923;52.520;13.494;2023-03-23T14:09:42;17.60;1.00
9768;DHT22;4923;52.520;13.494;2023-03-23T14:12:30;17.70;1.00
9768;DHT22;4923;52.520;13.494;2023-03-23T14:15:18;17.70;1.00
9768;DHT22;4923;52.520;13.494;2023-03-23T14:18:05;17.70;1.00
9768;DHT22;4923;52.520;13.494;2023-03-23T14:20:52;17.60;1.00
9768;DHT22;4923;52.520;13.494;2023-03-23T14:23:42;17.50;1.00
9768;DHT22;4923;52.520;13.494;2023-03-23T14:26:29;17.50;1.00
9768;DHT22;4923;52.520;13.494;2023-03-23T14:29:21;17.40;1.00
9768;DHT22;4923;52.520;13.494;2023-03-23T14:32:14;17.40;1.00
9768;DHT22;4923;52.520;13.494;2023-03-23T14:35:07;17.30;1.00
9768;DHT22;4923;52.520;13.494;2023-03-23T14:37:55;17.20;1.00
9768;DHT22;4923;52.520;13.494;2023-03-23T14:40:44;17.20;1.00
9768;DHT22;4923;52.520;13.494;2023-03-23T14:43:34;17.10;1.00
9768;DHT22;4923;52.520;13.494;2023-03-23T14:46:21;17.10;1.00
9768;DHT22;4923;52.520;13.494;2023-03-23T14:49:13;17.00;1.00
9768;DHT22;4923;52.520;13.494;2023-03-23T14:52:07;17.00;1.00
9768;DHT22;4923;52.520;13.494;2023-03-23T14:55:06;16.80;1.00
9768;DHT22;4923;52.520;13.494;2023-03-23T14:57:55;16.80;1.00
9768;DHT22;4923;52.520;13.494;2023-03-23T15:00:44;16.80;1.00
9768;DHT22;4923;52.520;13.494;2023-03-23T15:03:35;16.70;1.00
9768;DHT22;4923;52.520;13.494;2023-03-23T15:06:25;16.60;1.00
9768;DHT22;4923;52.520;13.494;2023-03-23T15:09:16;16.70;1.00
9768;DHT22;4923;52.520;13.494;2023-03-23T15:12:04;16.70;1.00
9768;DHT22;4923;52.520;13.494;2023-03-23T15:14:55;16.80;1.00
9768;DHT22;4923;52.520;13.494;2023-03-23T15:17:45;17.00;1.00
9768;DHT22;4923;52.520;13.494;2023-03-23T15:20:46;17.10;1.00
9768;DHT22;4923;52.520;13.494;2023-03-23T15:23:34;17.20;1.00
9768;DHT22;4923;52.520;13.494;2023-03-23T15:26:31;17.00;1.00
9768;DHT22;4923;52.520;13.494;2023-03-23T15:29:20;16.90;1.00
9768;DHT22;4923;52.520;13.494;2023-03-23T15:32:10;16.80;1.00
9768;DHT22;4923;52.520;13.494;2023-03-23T15:35:03;16.90;1.00
9768;DHT22;4923;52.520;13.494;2023-03-23T15:37:52;16.80;1.00
9768;DHT22;4923;52.520;13.494;2023-03-23T15:40:40;16.70;1.00
9768;DHT22;4923;52.520;13.494;2023-03-23T15:43:32;16.70;1.00
9768;DHT22;4923;52.520;13.494;2023-03-23T15:46:21;16.60;1.00
9768;DHT22;4923;52.520;13.494;2023-03-23T15:49:11;16.50;1.00
9768;DHT22;4923;52.520;13.494;2023-03-23T15:51:59;16.60;1.00
9768;DHT22;4923;52.520;13.494;2023-03-23T15:54:47;16.50;1.00
9768;DHT22;4923;52.520;13.494;2023-03-23T15:57:34;16.50;1.00
9768;DHT22;4923;52.520;13.494;2023-03-23T16:00:23;16.40;1.00
9768;DHT22;4923;52.520;13.494;2023-03-23T16:03:18;16.30;1.00
9768;DHT22;4923;52.520;13.494;2023-03-23T16:06:10;16.20;1.00
9768;DHT22;4923;52.520;13.494;2023-03-23T16:08:58;16.30;1.00
9768;DHT22;4923;52.520;13.494;2023-03-23T16:11:45;16.20;1.00
9768;DHT22;4923;52.520;13.494;2023-03-23T16:14:32;16.20;1.00
9768;DHT22;4923;52.520;13.494;2023-03-23T16:17:19;16.20;1.00
9768;DHT22;4923;52.520;13.494;2023-03-23T16:20:11;16.10;1.00
9768;DHT22;4923;52.520;13.494;2023-03-23T16:23:00;16.10;1.00
9768;DHT22;4923;52.520;13.494;2023-03-23T16:25:47;16.00;1.00
9768;DHT22;4923;52.520;13.494;2023-03-23T16:28:34;16.00;1.00
9768;DHT22;4923;52.520;13.494;2023-03-23T16:31:21;16.00;1.00
9768;DHT22;4923;52.520;13.494;2023-03-23T16:34:08;16.10;1.00
9768;DHT22;4923;52.520;13.494;2023-03-23T16:36:55;16.00;1.00
9768;DHT22;4923;52.520;13.494;2023-03-23T16:39:43;16.00;1.00
9768;DHT22;4923;52.520;13.494;2023-03-23T16:42:30;16.00;1.00
9768;DHT22;4923;52.520;13.494;2023-03-23T16:45:18;16.00;1.00
9768;DHT22;4923;52.520;13.494;2023-03-23T16:48:05;16.00;1.00
9768;DHT22;4923;52.520;13.494;2023-03-23T16:50:53;16.00;1.00
9768;DHT22;4923;52.520;13.494;2023-03-23T16:53:40;16.00;1.00
9768;DHT22;4923;52.520;13.494;2023-03-23T16:56:28;16.00;1.00
9768;DHT22;4923;52.520;13.494;2023-03-23T16:59:15;15.90;1.00
9768;DHT22;4923;52.520;13.494;2023-03-23T17:02:02;15.60;1.00
9768;DHT22;4923;52.520;13.494;2023-03-23T17:04:49;15.30;1.00
9768;DHT22;4923;52.520;13.494;2023-03-23T17:07:37;15.00;1.00
9768;DHT22;4923;52.520;13.494;2023-03-23T17:10:26;14.80;1.00
9768;DHT22;4923;52.520;13.494;2023-03-23T17:13:14;14.60;1.00
9768;DHT22;4923;52.520;13.494;2023-03-23T17:16:02;14.40;1.00
9768;DHT22;4923;52.520;13.494;2023-03-23T17:18:49;14.30;1.00
9768;DHT22;4923;52.520;13.494;2023-03-23T17:21:36;14.10;1.00
9768;DHT22;4923;52.520;13.494;2023-03-23T17:24:22;14.00;1.00
9768;DHT22;4923;52.520;13.494;2023-03-23T17:27:09;13.90;1.00
9768;DHT22;4923;52.520;13.494;2023-03-23T17:29:58;13.80;1.00
9768;DHT22;4923;52.520;13.494;2023-03-23T17:32:45;13.80;1.00
9768;DHT22;4923;52.520;13.494;2023-03-23T17:35:33;13.70;1.00
9768;DHT22;4923;52.520;13.494;2023-03-23T17:38:20;13.60;1.00
9768;DHT22;4923;52.520;13.494;2023-03-23T17:41:07;13.60;1.00
9768;DHT22;4923;52.520;13.494;2023-03-23T17:43:56;13.50;1.00
9768;DHT22;4923;52.520;13.494;2023-03-23T17:46:45;13.60;1.00
9768;DHT22;4923;52.520;13.494;2023-03-23T17:49:32;13.50;1.00
9768;DHT22;4923;52.520;13.494;2023-03-23T17:52:18;13.50;13.60
9768;DHT22;4923;52.520;13.494;2023-03-23T17:55:06;13.30;59.20
9768;DHT22;4923;52.520;13.494;2023-03-23T17:57:53;13.20;99.90
9768;DHT22;4923;52.520;13.494;2023-03-23T18:00:40;12.90;99.90
9768;DHT22;4923;52.520;13.494;2023-03-23T18:03:29;12.80;99.90
9768;DHT22;4923;52.520;13.494;2023-03-23T18:06:16;12.70;99.90
9768;DHT22;4923;52.520;13.494;2023-03-23T18:09:03;12.70;99.90
9768;DHT22;4923;52.520;13.494;2023-03-23T18:11:50;12.70;99.90
9768;DHT22;4923;52.520;13.494;2023-03-23T18:14:37;12.60;99.90
9768;DHT22;4923;52.520;13.494;2023-03-23T18:17:25;12.60;99.90
9768;DHT22;4923;52.520;13.494;2023-03-23T18:20:13;12.60;99.90
9768;DHT22;4923;52.520;13.494;2023-03-23T18:23:00;12.60;99.90
9768;DHT22;4923;52.520;13.494;2023-03-23T18:25:49;12.60;99.90
9768;DHT22;4923;52.520;13.494;2023-03-23T18:28:38;12.60;99.90
9768;DHT22;4923;52.520;13.494;2023-03-23T18:31:25;12.50;99.90
9768;DHT22;4923;52.520;13.494;2023-03-23T18:34:12;12.50;99.90